sensor_id;sensor_type;location;lat;lon;timestamp;pressure;altitude;pressure_sealevel;temperature;humidity
49709;BME280;35601;55.902;13.606;2023-03-03T00:00:30;101361.82;;;-4.65;69.86
49709;BME280;35601;55.902;13.606;2023-03-03T00:02:59;101370.23;;;-4.93;69.85
49709;BME280;35601;55.902;13.606;2023-03-03T00:05:21;101369.58;;;-4.72;70.60
49709;BME280;35601;55.902;13.606;2023-03-03T00:07:46;101367.29;;;-4.72;70.94
49709;BME280;35601;55.902;13.606;2023-03-03T00:10:12;101371.13;;;-4.69;71.05
49709;BME280;35601;55.902;13.606;2023-03-03T00:12:45;101370.60;;;-4.80;70.61
49709;BME280;35601;55.902;13.606;2023-03-03T00:15:12;101371.52;;;-4.74;70.48
49709;BME280;35601;55.902;13.606;2023-03-03T00:17:29;101377.00;;;-4.74;70.35
49709;BME280;35601;55.902;13.606;2023-03-03T00:19:54;101382.48;;;-5.01;70.89
49709;BME280;35601;55.902;13.606;2023-03-03T00:22:28;101390.67;;;-4.52;71.13
49709;BME280;35601;55.902;13.606;2023-03-03T00:24:45;101391.32;;;-4.72;71.26
49709;BME280;35601;55.902;13.606;2023-03-03T00:27:28;101392.80;;;-4.65;71.17
49709;BME280;35601;55.902;13.606;2023-03-03T00:29:40;101387.21;;;-4.62;70.89
49709;BME280;35601;55.902;13.606;2023-03-03T00:34:27;101376.24;;;-4.72;70.74
49709;BME280;35601;55.902;13.606;2023-03-03T00:36:53;101377.48;;;-4.69;70.93
49709;BME280;35601;55.902;13.606;2023-03-03T00:39:26;101383.48;;;-4.67;71.37
49709;BME280;35601;55.902;13.606;2023-03-03T00:41:42;101380.52;;;-4.60;71.38
49709;BME280;35601;55.902;13.606;2023-03-03T00:44:34;101380.19;;;-4.61;70.93
49709;BME280;35601;55.902;13.606;2023-03-03T00:46:36;101376.15;;;-4.61;70.68
49709;BME280;35601;55.902;13.606;2023-03-03T00:48:58;101382.54;;;-4.67;70.60
49709;BME280;35601;55.902;13.606;2023-03-03T00:51:27;101381.56;;;-4.67;70.68
49709;BME280;35601;55.902;13.606;2023-03-03T00:53:49;101382.94;;;-4.71;71.03
49709;BME280;35601;55.902;13.606;2023-03-03T00:56:15;101374.09;;;-4.76;71.76
49709;BME280;35601;55.902;13.606;2023-03-03T00:58:39;101367.64;;;-4.65;71.54
49709;BME280;35601;55.902;13.606;2023-03-03T01:01:05;101363.10;;;-4.87;71.63
49709;BME280;35601;55.902;13.606;2023-03-03T01:03:30;101358.69;;;-4.67;71.46
49709;BME280;35601;55.902;13.606;2023-03-03T01:05:55;101355.91;;;-4.57;71.83
49709;BME280;35601;55.902;13.606;2023-03-03T01:08:21;101363.99;;;-4.82;71.95
49709;BME280;35601;55.902;13.606;2023-03-03T01:10:48;101369.78;;;-4.75;72.01
49709;BME280;35601;55.902;13.606;2023-03-03T01:13:12;101364.15;;;-4.55;72.27
49709;BME280;35601;55.902;13.606;2023-03-03T01:15:38;101361.62;;;-4.67;72.42
49709;BME280;35601;55.902;13.606;2023-03-03T01:18:03;101360.72;;;-4.34;72.32
49709;BME280;35601;55.902;13.606;2023-03-03T01:20:28;101359.18;;;-4.63;72.58
49709;BME280;35601;55.902;13.606;2023-03-03T01:22:53;101353.12;;;-4.35;72.93
49709;BME280;35601;55.902;13.606;2023-03-03T01:25:20;101347.87;;;-4.25;72.98
49709;BME280;35601;55.902;13.606;2023-03-03T01:27:45;101337.70;;;-4.27;73.31
49709;BME280;35601;55.902;13.606;2023-03-03T01:30:11;101332.37;;;-4.24;73.73
49709;BME280;35601;55.902;13.606;2023-03-03T01:32:35;101333.10;;;-4.22;74.18
49709;BME280;35601;55.902;13.606;2023-03-03T01:35:03;101333.04;;;-4.55;73.92
49709;BME280;35601;55.902;13.606;2023-03-03T01:37:26;101326.90;;;-3.96;73.68
49709;BME280;35601;55.902;13.606;2023-03-03T01:39:53;101321.45;;;-4.35;73.69
49709;BME280;35601;55.902;13.606;2023-03-03T01:42:18;101320.98;;;-3.81;73.71
49709;BME280;35601;55.902;13.606;2023-03-03T01:44:44;101318.46;;;-4.17;73.61
49709;BME280;35601;55.902;13.606;2023-03-03T01:47:11;101320.84;;;-3.80;73.99
49709;BME280;35601;55.902;13.606;2023-03-03T01:49:41;101320.64;;;-4.27;74.32
49709;BME280;35601;55.902;13.606;2023-03-03T01:52:09;101320.49;;;-4.32;74.82
49709;BME280;35601;55.902;13.606;2023-03-03T01:54:33;101316.35;;;-4.46;75.45
49709;BME280;35601;55.902;13.606;2023-03-03T01:56:54;101317.96;;;-3.92;75.94
49709;BME280;35601;55.902;13.606;2023-03-03T01:59:20;101319.81;;;-4.29;75.72
49709;BME280;35601;55.902;13.606;2023-03-03T02:01:42;101319.90;;;-3.63;75.43
49709;BME280;35601;55.902;13.606;2023-03-03T02:04:09;101315.82;;;-4.00;75.27
49709;BME280;35601;55.902;13.606;2023-03-03T02:06:37;101312.62;;;-3.42;74.92
49709;BME280;35601;55.902;13.606;2023-03-03T02:09:03;101308.89;;;-3.56;74.80
49709;BME280;35601;55.902;13.606;2023-03-03T02:11:26;101306.37;;;-3.26;74.68
49709;BME280;35601;55.902;13.606;2023-03-03T02:13:50;101307.48;;;-3.88;75.18
49709;BME280;35601;55.902;13.606;2023-03-03T02:16:15;101311.74;;;-3.66;76.00
49709;BME280;35601;55.902;13.606;2023-03-03T02:18:40;101304.80;;;-4.20;76.06
49709;BME280;35601;55.902;13.606;2023-03-03T02:21:11;101303.44;;;-4.43;76.75
49709;BME280;35601;55.902;13.606;2023-03-03T02:23:37;101306.49;;;-3.95;77.32
49709;BME280;35601;55.902;13.606;2023-03-03T02:26:04;101299.10;;;-4.05;77.91
49709;BME280;35601;55.902;13.606;2023-03-03T02:28:24;101302.16;;;-3.89;77.89
49709;BME280;35601;55.902;13.606;2023-03-03T02:30:47;101295.85;;;-4.17;78.32
49709;BME280;35601;55.902;13.606;2023-03-03T02:33:13;101294.96;;;-4.01;78.67
49709;BME280;35601;55.902;13.606;2023-03-03T02:35:40;101294.17;;;-4.00;78.93
49709;BME280;35601;55.902;13.606;2023-03-03T02:38:13;101293.12;;;-3.99;79.51
49709;BME280;35601;55.902;13.606;2023-03-03T02:40:35;101290.51;;;-4.32;80.05
49709;BME280;35601;55.902;13.606;2023-03-03T02:42:57;101288.36;;;-4.10;80.49
49709;BME280;35601;55.902;13.606;2023-03-03T02:45:20;101285.94;;;-3.95;80.18
49709;BME280;35601;55.902;13.606;2023-03-03T02:47:48;101285.81;;;-3.95;79.72
49709;BME280;35601;55.902;13.606;2023-03-03T02:50:12;101289.78;;;-3.88;79.51
49709;BME280;35601;55.902;13.606;2023-03-03T02:52:37;101292.87;;;-3.58;79.39
49709;BME280;35601;55.902;13.606;2023-03-03T02:55:03;101298.35;;;-3.86;80.57
49709;BME280;35601;55.902;13.606;2023-03-03T02:57:28;101296.90;;;-3.56;79.60
49709;BME280;35601;55.902;13.606;2023-03-03T02:59:54;101300.26;;;-4.23;80.92
49709;BME280;35601;55.902;13.606;2023-03-03T03:02:20;101301.56;;;-3.97;79.81
49709;BME280;35601;55.902;13.606;2023-03-03T03:04:47;101299.16;;;-4.00;79.73
49709;BME280;35601;55.902;13.606;2023-03-03T03:07:12;101298.26;;;-3.83;79.33
49709;BME280;35601;55.902;13.606;2023-03-03T03:09:37;101303.60;;;-3.16;78.65
49709;BME280;35601;55.902;13.606;2023-03-03T03:12:01;101300.23;;;-3.27;78.09
49709;BME280;35601;55.902;13.606;2023-03-03T03:14:26;101293.53;;;-3.42;77.62
49709;BME280;35601;55.902;13.606;2023-03-03T03:16:53;101289.78;;;-3.56;78.11
49709;BME280;35601;55.902;13.606;2023-03-03T03:19:17;101289.57;;;-3.38;77.88
49709;BME280;35601;55.902;13.606;2023-03-03T03:21:43;101287.86;;;-3.59;77.61
49709;BME280;35601;55.902;13.606;2023-03-03T03:24:10;101283.50;;;-3.51;77.37
49709;BME280;35601;55.902;13.606;2023-03-03T03:26:35;101287.55;;;-3.69;78.25
49709;BME280;35601;55.902;13.606;2023-03-03T03:29:00;101289.65;;;-3.64;77.89
49709;BME280;35601;55.902;13.606;2023-03-03T03:31:26;101284.34;;;-3.45;78.42
49709;BME280;35601;55.902;13.606;2023-03-03T03:33:51;101283.44;;;-3.65;79.66
49709;BME280;35601;55.902;13.606;2023-03-03T03:36:16;101284.70;;;-3.46;78.25
49709;BME280;35601;55.902;13.606;2023-03-03T03:38:41;101283.22;;;-3.31;77.78
49709;BME280;35601;55.902;13.606;2023-03-03T03:41:07;101278.23;;;-3.60;77.59
49709;BME280;35601;55.902;13.606;2023-03-03T03:43:32;101276.56;;;-3.33;77.58
49709;BME280;35601;55.902;13.606;2023-03-03T03:45:58;101273.76;;;-3.55;77.18
49709;BME280;35601;55.902;13.606;2023-03-03T03:48:23;101275.12;;;-3.23;77.00
49709;BME280;35601;55.902;13.606;2023-03-03T03:50:50;101273.75;;;-3.46;76.70
49709;BME280;35601;55.902;13.606;2023-03-03T03:53:14;101270.36;;;-3.43;76.66
49709;BME280;35601;55.902;13.606;2023-03-03T03:55:39;101269.01;;;-3.17;76.53
49709;BME280;35601;55.902;13.606;2023-03-03T03:58:05;101271.26;;;-3.76;77.21
49709;BME280;35601;55.902;13.606;2023-03-03T04:00:31;101267.75;;;-3.40;77.13
49709;BME280;35601;55.902;13.606;2023-03-03T04:02:57;101259.10;;;-3.71;77.23
49709;BME280;35601;55.902;13.606;2023-03-03T04:05:22;101258.81;;;-3.56;77.78
49709;BME280;35601;55.902;13.606;2023-03-03T04:07:48;101256.32;;;-3.58;77.69
49709;BME280;35601;55.902;13.606;2023-03-03T04:10:13;101252.63;;;-3.48;77.30
49709;BME280;35601;55.902;13.606;2023-03-03T04:12:38;101252.17;;;-3.63;77.11
49709;BME280;35601;55.902;13.606;2023-03-03T04:15:07;101249.74;;;-3.58;76.68
49709;BME280;35601;55.902;13.606;2023-03-03T04:17:29;101251.07;;;-3.73;76.87
49709;BME280;35601;55.902;13.606;2023-03-03T04:19:55;101253.40;;;-3.60;77.12
49709;BME280;35601;55.902;13.606;2023-03-03T04:22:20;101248.30;;;-3.48;76.77
49709;BME280;35601;55.902;13.606;2023-03-03T04:24:46;101243.91;;;-3.52;76.54
49709;BME280;35601;55.902;13.606;2023-03-03T04:27:13;101236.57;;;-3.30;76.27
49709;BME280;35601;55.902;13.606;2023-03-03T04:29:39;101237.10;;;-3.47;76.12
49709;BME280;35601;55.902;13.606;2023-03-03T04:32:03;101240.31;;;-3.57;75.95
49709;BME280;35601;55.902;13.606;2023-03-03T04:34:28;101237.92;;;-3.63;76.17
49709;BME280;35601;55.902;13.606;2023-03-03T04:36:53;101238.54;;;-3.57;75.95
49709;BME280;35601;55.902;13.606;2023-03-03T04:39:20;101236.14;;;-3.61;76.21
49709;BME280;35601;55.902;13.606;2023-03-03T04:41:45;101237.07;;;-3.56;76.01
49709;BME280;35601;55.902;13.606;2023-03-03T04:44:12;101238.75;;;-3.58;75.91
49709;BME280;35601;55.902;13.606;2023-03-03T04:46:37;101240.32;;;-3.57;75.92
49709;BME280;35601;55.902;13.606;2023-03-03T04:49:02;101245.20;;;-3.59;75.78
49709;BME280;35601;55.902;13.606;2023-03-03T04:51:29;101239.67;;;-3.61;75.93
49709;BME280;35601;55.902;13.606;2023-03-03T04:53:53;101234.10;;;-3.58;75.66
49709;BME280;35601;55.902;13.606;2023-03-03T04:56:19;101228.15;;;-3.60;75.42
49709;BME280;35601;55.902;13.606;2023-03-03T04:58:44;101224.74;;;-3.73;75.52
49709;BME280;35601;55.902;13.606;2023-03-03T05:01:12;101230.21;;;-3.78;76.12
49709;BME280;35601;55.902;13.606;2023-03-03T05:03:35;101229.31;;;-4.09;76.39
49709;BME280;35601;55.902;13.606;2023-03-03T05:06:00;101228.97;;;-3.96;75.79
49709;BME280;35601;55.902;13.606;2023-03-03T05:08:26;101230.25;;;-4.17;75.50
49709;BME280;35601;55.902;13.606;2023-03-03T05:10:53;101229.17;;;-3.91;75.31
49709;BME280;35601;55.902;13.606;2023-03-03T05:13:17;101233.19;;;-3.93;75.24
49709;BME280;35601;55.902;13.606;2023-03-03T05:15:42;101235.29;;;-3.91;75.30
49709;BME280;35601;55.902;13.606;2023-03-03T05:18:09;101233.48;;;-4.05;75.15
49709;BME280;35601;55.902;13.606;2023-03-03T05:20:34;101229.45;;;-3.79;74.81
49709;BME280;35601;55.902;13.606;2023-03-03T05:23:01;101224.98;;;-3.78;74.71
49709;BME280;35601;55.902;13.606;2023-03-03T05:25:26;101233.14;;;-3.65;74.85
49709;BME280;35601;55.902;13.606;2023-03-03T05:27:51;101236.89;;;-3.88;74.92
49709;BME280;35601;55.902;13.606;2023-03-03T05:30:17;101234.38;;;-4.08;75.39
49709;BME280;35601;55.902;13.606;2023-03-03T05:32:43;101231.17;;;-3.75;75.39
49709;BME280;35601;55.902;13.606;2023-03-03T05:35:09;101229.77;;;-3.93;75.48
49709;BME280;35601;55.902;13.606;2023-03-03T05:37:33;101222.12;;;-3.90;75.81
49709;BME280;35601;55.902;13.606;2023-03-03T05:39:58;101218.22;;;-3.36;75.76
49709;BME280;35601;55.902;13.606;2023-03-03T05:42:24;101221.93;;;-3.82;75.47
49709;BME280;35601;55.902;13.606;2023-03-03T05:44:51;101221.52;;;-3.88;75.32
49709;BME280;35601;55.902;13.606;2023-03-03T05:47:15;101222.40;;;-3.83;75.23
49709;BME280;35601;55.902;13.606;2023-03-03T05:49:40;101224.98;;;-3.78;75.21
49709;BME280;35601;55.902;13.606;2023-03-03T05:52:07;101227.44;;;-3.54;75.31
49709;BME280;35601;55.902;13.606;2023-03-03T05:54:32;101228.43;;;-3.76;75.50
49709;BME280;35601;55.902;13.606;2023-03-03T05:56:57;101228.62;;;-3.71;75.52
49709;BME280;35601;55.902;13.606;2023-03-03T05:59:22;101229.71;;;-3.80;76.16
49709;BME280;35601;55.902;13.606;2023-03-03T06:01:47;101234.55;;;-3.67;76.05
49709;BME280;35601;55.902;13.606;2023-03-03T06:04:13;101234.87;;;-3.60;75.85
49709;BME280;35601;55.902;13.606;2023-03-03T06:06:39;101239.08;;;-3.61;75.89
49709;BME280;35601;55.902;13.606;2023-03-03T06:09:03;101237.30;;;-3.59;76.25
49709;BME280;35601;55.902;13.606;2023-03-03T06:11:28;101244.08;;;-3.55;76.28
49709;BME280;35601;55.902;13.606;2023-03-03T06:13:55;101243.76;;;-3.52;75.90
49709;BME280;35601;55.902;13.606;2023-03-03T06:16:20;101243.83;;;-3.54;75.76
49709;BME280;35601;55.902;13.606;2023-03-03T06:18:45;101247.61;;;-3.48;75.77
49709;BME280;35601;55.902;13.606;2023-03-03T06:21:10;101248.75;;;-3.43;76.01
49709;BME280;35601;55.902;13.606;2023-03-03T06:23:36;101250.88;;;-3.39;76.30
49709;BME280;35601;55.902;13.606;2023-03-03T06:26:01;101252.57;;;-3.37;76.45
49709;BME280;35601;55.902;13.606;2023-03-03T06:28:26;101260.40;;;-3.42;77.23
49709;BME280;35601;55.902;13.606;2023-03-03T06:30:52;101262.47;;;-3.54;77.91
49709;BME280;35601;55.902;13.606;2023-03-03T06:33:18;101260.05;;;-3.58;77.64
49709;BME280;35601;55.902;13.606;2023-03-03T06:35:42;101261.46;;;-3.29;77.76
49709;BME280;35601;55.902;13.606;2023-03-03T06:38:09;101256.87;;;-3.46;77.91
49709;BME280;35601;55.902;13.606;2023-03-03T06:40:34;101256.48;;;-3.12;77.75
49709;BME280;35601;55.902;13.606;2023-03-03T06:42:59;101259.98;;;-3.30;77.96
49709;BME280;35601;55.902;13.606;2023-03-03T06:45:26;101258.26;;;-3.16;77.75
49709;BME280;35601;55.902;13.606;2023-03-03T06:47:50;101259.99;;;-3.06;77.62
49709;BME280;35601;55.902;13.606;2023-03-03T06:50:19;101253.74;;;-2.95;77.45
49709;BME280;35601;55.902;13.606;2023-03-03T06:52:41;101256.68;;;-3.07;77.37
49709;BME280;35601;55.902;13.606;2023-03-03T06:55:12;101247.69;;;-2.96;77.24
49709;BME280;35601;55.902;13.606;2023-03-03T06:57:32;101242.94;;;-2.75;77.46
49709;BME280;35601;55.902;13.606;2023-03-03T07:00:05;101242.23;;;-2.76;78.27
49709;BME280;35601;55.902;13.606;2023-03-03T07:02:23;101242.75;;;-2.85;79.06
49709;BME280;35601;55.902;13.606;2023-03-03T07:04:48;101247.11;;;-2.99;79.85
49709;BME280;35601;55.902;13.606;2023-03-03T07:07:17;101253.57;;;-3.08;79.85
49709;BME280;35601;55.902;13.606;2023-03-03T07:09:39;101255.60;;;-2.59;79.35
49709;BME280;35601;55.902;13.606;2023-03-03T07:12:10;101257.17;;;-2.66;79.15
49709;BME280;35601;55.902;13.606;2023-03-03T07:14:29;101258.00;;;-2.50;78.88
49709;BME280;35601;55.902;13.606;2023-03-03T07:16:58;101259.72;;;-2.32;78.65
49709;BME280;35601;55.902;13.606;2023-03-03T07:19:28;101258.39;;;-2.19;78.49
49709;BME280;35601;55.902;13.606;2023-03-03T07:21:46;101260.95;;;-2.10;78.42
49709;BME280;35601;55.902;13.606;2023-03-03T07:24:21;101264.96;;;-2.20;78.29
49709;BME280;35601;55.902;13.606;2023-03-03T07:26:37;101259.81;;;-2.07;78.20
49709;BME280;35601;55.902;13.606;2023-03-03T07:29:12;101260.10;;;-1.72;78.16
49709;BME280;35601;55.902;13.606;2023-03-03T07:31:32;101257.76;;;-1.60;78.02
49709;BME280;35601;55.902;13.606;2023-03-03T07:33:54;101256.95;;;-1.66;78.46
49709;BME280;35601;55.902;13.606;2023-03-03T07:36:26;101259.51;;;-1.62;78.83
49709;BME280;35601;55.902;13.606;2023-03-03T07:38:50;101258.48;;;-2.06;78.89
49709;BME280;35601;55.902;13.606;2023-03-03T07:41:15;101256.74;;;-1.98;79.26
49709;BME280;35601;55.902;13.606;2023-03-03T07:43:37;101255.53;;;-2.06;79.42
49709;BME280;35601;55.902;13.606;2023-03-03T07:48:30;101252.69;;;-2.01;79.45
49709;BME280;35601;55.902;13.606;2023-03-03T07:50:51;101253.27;;;-1.79;79.81
49709;BME280;35601;55.902;13.606;2023-03-03T07:53:25;101251.38;;;-1.99;79.93
49709;BME280;35601;55.902;13.606;2023-03-03T07:55:42;101244.57;;;-1.49;79.57
49709;BME280;35601;55.902;13.606;2023-03-03T07:58:21;101245.48;;;-1.73;79.36
49709;BME280;35601;55.902;13.606;2023-03-03T08:03:04;101242.83;;;-1.42;79.43
49709;BME280;35601;55.902;13.606;2023-03-03T08:05:30;101240.42;;;-1.36;79.48
49709;BME280;35601;55.902;13.606;2023-03-03T08:07:50;101240.51;;;-1.50;79.45
49709;BME280;35601;55.902;13.606;2023-03-03T08:10:28;101244.59;;;-1.19;79.32
49709;BME280;35601;55.902;13.606;2023-03-03T08:12:42;101242.08;;;-0.99;79.15
49709;BME280;35601;55.902;13.606;2023-03-03T08:15:18;101240.41;;;-1.37;78.60
49709;BME280;35601;55.902;13.606;2023-03-03T08:17:35;101242.01;;;-1.26;79.19
49709;BME280;35601;55.902;13.606;2023-03-03T08:19:57;101242.39;;;-1.25;78.55
49709;BME280;35601;55.902;13.606;2023-03-03T08:22:28;101238.75;;;-1.07;78.75
49709;BME280;35601;55.902;13.606;2023-03-03T08:24:48;101241.65;;;-0.93;78.75
49709;BME280;35601;55.902;13.606;2023-03-03T08:27:13;101239.95;;;-1.22;79.13
49709;BME280;35601;55.902;13.606;2023-03-03T08:29:39;101241.71;;;-1.28;78.51
49709;BME280;35601;55.902;13.606;2023-03-03T08:32:04;101237.76;;;-1.22;79.50
49709;BME280;35601;55.902;13.606;2023-03-03T08:34:30;101232.61;;;-0.84;78.84
49709;BME280;35601;55.902;13.606;2023-03-03T08:36:55;101229.02;;;-0.79;78.47
49709;BME280;35601;55.902;13.606;2023-03-03T08:39:20;101228.64;;;-0.48;78.85
49709;BME280;35601;55.902;13.606;2023-03-03T08:41:46;101226.63;;;-0.92;78.87
49709;BME280;35601;55.902;13.606;2023-03-03T08:44:11;101228.17;;;-0.56;78.05
49709;BME280;35601;55.902;13.606;2023-03-03T08:46:36;101232.98;;;-0.51;77.93
49709;BME280;35601;55.902;13.606;2023-03-03T08:49:02;101235.37;;;-0.62;78.20
49709;BME280;35601;55.902;13.606;2023-03-03T08:51:27;101234.12;;;-0.55;78.36
49709;BME280;35601;55.902;13.606;2023-03-03T08:53:53;101231.51;;;-1.07;78.88
49709;BME280;35601;55.902;13.606;2023-03-03T08:56:18;101236.09;;;-0.66;79.18
49709;BME280;35601;55.902;13.606;2023-03-03T08:58:43;101231.81;;;-0.56;78.79
49709;BME280;35601;55.902;13.606;2023-03-03T09:01:09;101229.19;;;-0.47;78.66
49709;BME280;35601;55.902;13.606;2023-03-03T09:03:34;101229.58;;;-0.53;78.84
49709;BME280;35601;55.902;13.606;2023-03-03T09:05:59;101229.97;;;-0.18;78.42
49709;BME280;35601;55.902;13.606;2023-03-03T09:08:24;101227.97;;;-0.44;78.49
49709;BME280;35601;55.902;13.606;2023-03-03T09:10:50;101225.78;;;-0.02;78.56
49709;BME280;35601;55.902;13.606;2023-03-03T09:13:19;101228.29;;;0.06;77.60
49709;BME280;35601;55.902;13.606;2023-03-03T09:15:42;101225.70;;;0.23;77.63
49709;BME280;35601;55.902;13.606;2023-03-03T09:18:14;101223.49;;;0.08;77.13
49709;BME280;35601;55.902;13.606;2023-03-03T09:20:36;101222.49;;;0.12;77.33
49709;BME280;35601;55.902;13.606;2023-03-03T09:22:58;101227.38;;;0.11;77.54
49709;BME280;35601;55.902;13.606;2023-03-03T09:25:30;101223.29;;;0.21;77.61
49709;BME280;35601;55.902;13.606;2023-03-03T09:27:48;101216.61;;;0.39;77.97
49709;BME280;35601;55.902;13.606;2023-03-03T09:30:27;101216.35;;;0.06;78.38
49709;BME280;35601;55.902;13.606;2023-03-03T09:32:39;101216.14;;;0.08;77.71
49709;BME280;35601;55.902;13.606;2023-03-03T09:37:36;101214.54;;;0.23;77.20
49709;BME280;35601;55.902;13.606;2023-03-03T09:39:56;101207.02;;;0.33;77.26
49709;BME280;35601;55.902;13.606;2023-03-03T09:42:36;101200.26;;;0.37;78.26
49709;BME280;35601;55.902;13.606;2023-03-03T09:44:55;101196.23;;;0.12;77.85
49709;BME280;35601;55.902;13.606;2023-03-03T09:47:24;101194.26;;;0.16;78.15
49709;BME280;35601;55.902;13.606;2023-03-03T09:49:43;101194.67;;;0.35;77.15
49709;BME280;35601;55.902;13.606;2023-03-03T09:52:12;101193.77;;;0.27;77.02
49709;BME280;35601;55.902;13.606;2023-03-03T09:54:39;101197.65;;;0.18;77.31
49709;BME280;35601;55.902;13.606;2023-03-03T09:56:59;101197.52;;;0.12;76.95
49709;BME280;35601;55.902;13.606;2023-03-03T09:59:29;101194.10;;;0.05;77.22
49709;BME280;35601;55.902;13.606;2023-03-03T10:01:54;101189.80;;;0.26;77.20
49709;BME280;35601;55.902;13.606;2023-03-03T10:06:40;101182.28;;;0.04;77.49
49709;BME280;35601;55.902;13.606;2023-03-03T10:09:15;101179.58;;;0.24;77.28
49709;BME280;35601;55.902;13.606;2023-03-03T10:11:31;101184.63;;;0.23;77.16
49709;BME280;35601;55.902;13.606;2023-03-03T10:14:04;101186.56;;;0.35;77.22
49709;BME280;35601;55.902;13.606;2023-03-03T10:16:32;101184.68;;;0.24;77.37
49709;BME280;35601;55.902;13.606;2023-03-03T10:18:44;101182.79;;;0.33;77.52
49709;BME280;35601;55.902;13.606;2023-03-03T10:21:10;101180.60;;;-0.00;77.78
49709;BME280;35601;55.902;13.606;2023-03-03T10:23:51;101182.20;;;0.34;77.81
49709;BME280;35601;55.902;13.606;2023-03-03T10:26:04;101182.93;;;0.28;77.70
49709;BME280;35601;55.902;13.606;2023-03-03T10:30:54;101177.17;;;0.29;77.25
49709;BME280;35601;55.902;13.606;2023-03-03T10:33:19;101171.49;;;0.57;77.72
49709;BME280;35601;55.902;13.606;2023-03-03T10:35:50;101170.71;;;0.64;77.37
49709;BME280;35601;55.902;13.606;2023-03-03T10:38:17;101170.43;;;0.60;78.15
49709;BME280;35601;55.902;13.606;2023-03-03T10:40:34;101167.99;;;0.70;77.90
49709;BME280;35601;55.902;13.606;2023-03-03T10:43:07;101163.61;;;0.53;77.04
49709;BME280;35601;55.902;13.606;2023-03-03T10:47:58;101157.30;;;0.89;77.16
49709;BME280;35601;55.902;13.606;2023-03-03T10:50:18;101149.91;;;0.76;77.33
49709;BME280;35601;55.902;13.606;2023-03-03T10:52:40;101151.87;;;0.60;76.62
49709;BME280;35601;55.902;13.606;2023-03-03T10:55:24;101149.88;;;1.07;76.67
49709;BME280;35601;55.902;13.606;2023-03-03T10:57:34;101147.79;;;1.13;76.49
49709;BME280;35601;55.902;13.606;2023-03-03T11:00:02;101149.75;;;0.73;76.76
49709;BME280;35601;55.902;13.606;2023-03-03T11:02:20;101150.71;;;0.99;76.20
49709;BME280;35601;55.902;13.606;2023-03-03T11:04:53;101139.72;;;1.22;75.84
49709;BME280;35601;55.902;13.606;2023-03-03T11:07:12;101137.78;;;1.72;75.10
49709;BME280;35601;55.902;13.606;2023-03-03T11:09:46;101136.86;;;1.20;75.37
49709;BME280;35601;55.902;13.606;2023-03-03T11:12:06;101133.69;;;-0.17;75.97
49709;BME280;35601;55.902;13.606;2023-03-03T11:14:31;101129.52;;;1.15;74.58
49709;BME280;35601;55.902;13.606;2023-03-03T11:16:55;101127.96;;;1.45;73.95
49709;BME280;35601;55.902;13.606;2023-03-03T11:19:32;101130.06;;;1.42;74.11
49709;BME280;35601;55.902;13.606;2023-03-03T11:21:46;101123.38;;;1.08;73.87
49709;BME280;35601;55.902;13.606;2023-03-03T11:24:20;101116.33;;;1.62;74.08
49709;BME280;35601;55.902;13.606;2023-03-03T11:26:41;101108.04;;;1.49;74.12
49709;BME280;35601;55.902;13.606;2023-03-03T11:29:10;101107.93;;;1.72;74.74
49709;BME280;35601;55.902;13.606;2023-03-03T11:31:26;101103.25;;;1.79;74.49
49709;BME280;35601;55.902;13.606;2023-03-03T11:33:54;101102.76;;;1.72;74.16
49709;BME280;35601;55.902;13.606;2023-03-03T11:36:15;101097.92;;;1.45;74.28
49709;BME280;35601;55.902;13.606;2023-03-03T11:38:47;101099.43;;;1.82;75.04
49709;BME280;35601;55.902;13.606;2023-03-03T11:41:06;101096.31;;;1.35;75.82
49709;BME280;35601;55.902;13.606;2023-03-03T11:43:29;101096.74;;;1.51;75.68
49709;BME280;35601;55.902;13.606;2023-03-03T11:45:54;101097.27;;;1.61;76.45
49709;BME280;35601;55.902;13.606;2023-03-03T11:48:23;101095.23;;;1.57;75.80
49709;BME280;35601;55.902;13.606;2023-03-03T11:50:50;101091.46;;;1.64;75.80
49709;BME280;35601;55.902;13.606;2023-03-03T11:55:38;101084.14;;;1.70;75.91
49709;BME280;35601;55.902;13.606;2023-03-03T11:58:07;101083.16;;;1.79;75.68
49709;BME280;35601;55.902;13.606;2023-03-03T12:00:28;101081.28;;;1.53;75.18
49709;BME280;35601;55.902;13.606;2023-03-03T12:03:08;101080.37;;;1.78;75.49
49709;BME280;35601;55.902;13.606;2023-03-03T12:07:48;101077.02;;;1.91;74.81
49709;BME280;35601;55.902;13.606;2023-03-03T12:10:16;101072.39;;;1.88;74.62
49709;BME280;35601;55.902;13.606;2023-03-03T12:12:37;101066.99;;;1.98;74.44
49709;BME280;35601;55.902;13.606;2023-03-03T12:15:06;101060.11;;;2.13;74.98
49709;BME280;35601;55.902;13.606;2023-03-03T12:17:38;101053.90;;;1.82;74.82
49709;BME280;35601;55.902;13.606;2023-03-03T12:19:53;101053.33;;;2.23;74.64
49709;BME280;35601;55.902;13.606;2023-03-03T12:22:21;101050.26;;;2.02;74.03
49709;BME280;35601;55.902;13.606;2023-03-03T12:24:48;101045.71;;;2.11;73.49
49709;BME280;35601;55.902;13.606;2023-03-03T12:27:13;101041.74;;;2.07;74.10
49709;BME280;35601;55.902;13.606;2023-03-03T12:29:37;101033.05;;;2.35;74.30
49709;BME280;35601;55.902;13.606;2023-03-03T12:32:03;101028.54;;;2.29;73.90
49709;BME280;35601;55.902;13.606;2023-03-03T12:34:26;101025.31;;;2.49;73.12
49709;BME280;35601;55.902;13.606;2023-03-03T12:37:00;101022.17;;;2.33;72.40
49709;BME280;35601;55.902;13.606;2023-03-03T12:39:19;101024.05;;;2.37;72.30
49709;BME280;35601;55.902;13.606;2023-03-03T12:41:42;101018.21;;;2.01;73.39
49709;BME280;35601;55.902;13.606;2023-03-03T12:44:12;101016.02;;;2.38;72.50
49709;BME280;35601;55.902;13.606;2023-03-03T12:46:35;101011.76;;;2.19;72.72
49709;BME280;35601;55.902;13.606;2023-03-03T12:48:53;101009.00;;;2.26;72.23
49709;BME280;35601;55.902;13.606;2023-03-03T12:51:32;101006.59;;;2.17;72.88
49709;BME280;35601;55.902;13.606;2023-03-03T12:56:14;101002.11;;;2.22;72.74